Time;durP1;ratioP1;P1;durP2;ratioP2;P2;SDS_P1;SDS_P2;PMS_P1;PMS_P2;Temp;Humidity;BMP_temperature;BMP_pressure;BME280_temperature;BME280_humidity;BME280_pressure;Samples;Min_cycle;Max_cycle;Signal;HPM_P1;HPM_P2
2023/05/16 00:02:18;;;;;;;4.93;0.43;;;;;;;9.67;73.21;102134.84;5076017;27;97436;-31
2023/05/16 00:04:45;;;;;;;0.13;0.05;;;;;;;9.67;73.22;102131.28;5076459;27;97836;-32
2023/05/16 00:07:10;;;;;;;1.17;0.45;;;;;;;9.68;73.33;102135.78;5075633;27;96602;-31
2023/05/16 00:09:36;;;;;;;0.82;0.38;;;;;;;9.64;73.04;102136.81;5076673;27;96855;-31
2023/05/16 00:12:01;;;;;;;4.65;0.55;;;;;;;9.63;73.40;102138.63;5076191;27;98025;-31
2023/05/16 00:14:27;;;;;;;1.77;0.50;;;;;;;9.59;73.31;102144.22;5057781;27;98935;-30
2023/05/16 00:16:53;;;;;;;2.75;0.68;;;;;;;9.59;72.94;102138.81;5076234;27;96556;-32
2023/05/16 00:19:19;;;;;;;3.30;0.28;;;;;;;9.55;73.35;102141.59;5057465;27;96857;-32
2023/05/16 00:21:44;;;;;;;1.50;0.65;;;;;;;9.53;73.40;102139.91;5075827;27;99434;-32
2023/05/16 00:24:10;;;;;;;0.32;0.20;;;;;;;9.53;73.51;102137.19;5057891;27;101101;-31
2023/05/16 00:26:35;;;;;;;5.07;0.43;;;;;;;9.49;73.65;102140.97;5057782;27;96471;-31
2023/05/16 00:29:01;;;;;;;4.97;0.70;;;;;;;9.49;73.53;102144.56;5076079;27;96653;-30
2023/05/16 00:31:26;;;;;;;2.83;0.57;;;;;;;9.51;73.46;102144.47;5074817;27;97985;-31
2023/05/16 00:33:53;;;;;;;2.92;0.52;;;;;;;9.46;73.67;102144.66;5055690;27;97864;-31
2023/05/16 00:36:19;;;;;;;2.85;0.60;;;;;;;9.48;73.78;102144.59;5054317;27;96471;-30
2023/05/16 00:38:45;;;;;;;0.85;0.20;;;;;;;9.45;73.31;102133.91;5054308;27;96787;-30
2023/05/16 00:41:10;;;;;;;1.65;0.50;;;;;;;9.44;73.52;102137.53;5055347;27;97920;-30
2023/05/16 00:43:35;;;;;;;3.38;0.73;;;;;;;9.42;73.47;102145.72;5053773;27;99244;-31
2023/05/16 00:46:01;;;;;;;1.08;0.50;;;;;;;9.42;73.50;102142.13;5055574;27;96508;-31
2023/05/16 00:48:26;;;;;;;2.20;0.38;;;;;;;9.38;73.78;102149.44;5054497;27;96813;-31
2023/05/16 00:50:52;;;;;;;2.95;0.70;;;;;;;9.39;73.61;102151.22;5055187;27;97744;-31
2023/05/16 00:53:19;;;;;;;4.45;0.55;;;;;;;9.38;73.48;102148.56;5053668;27;101003;-30
2023/05/16 00:55:44;;;;;;;0.50;0.15;;;;;;;9.34;73.71;102139.66;5053378;27;96569;-31
2023/05/16 00:58:10;;;;;;;6.70;0.30;;;;;;;9.35;73.87;102152.28;5053951;27;96828;-31
2023/05/16 01:00:36;;;;;;;3.65;0.38;;;;;;;9.34;73.61;102145.06;5054991;27;97399;-31
2023/05/16 01:03:04;;;;;;;3.72;0.40;;;;;;;9.32;73.67;102142.44;5053350;27;100945;-30
2023/05/16 01:05:30;;;;;;;1.90;0.60;;;;;;;9.30;73.85;102147.03;5053593;27;96487;-31
2023/05/16 01:07:55;;;;;;;3.90;1.05;;;;;;;9.30;73.87;102146.16;5053851;27;96741;-30
2023/05/16 01:10:21;;;;;;;0.20;0.10;;;;;;;9.26;73.97;102145.34;5055074;27;97457;-32
2023/05/16 01:13:01;;;;;;;2.05;0.50;;;;;;;9.27;74.35;102144.44;5055295;27;97797;-31
2023/05/16 01:15:38;;;;;;;1.23;0.28;;;;;;;9.25;74.18;102156.25;5055328;27;96628;-31
2023/05/16 01:18:21;;;;;;;0.28;0.20;;;;;;;9.21;74.31;102146.47;5055314;27;96456;-31
2023/05/16 01:20:55;;;;;;;2.22;0.45;;;;;;;9.20;74.37;102159.09;5052870;27;100717;-31
2023/05/16 01:23:31;;;;;;;1.95;0.60;;;;;;;9.14;74.49;102143.97;5055228;27;97168;-31
2023/05/16 01:26:10;;;;;;;2.63;0.88;;;;;;;9.12;74.84;102147.66;5053683;27;96705;-33
2023/05/16 01:28:38;;;;;;;4.80;0.63;;;;;;;9.11;74.67;102141.38;5053626;27;96767;-31
2023/05/16 01:31:03;;;;;;;1.02;0.40;;;;;;;9.11;74.65;102151.31;5053167;27;101453;-31
2023/05/16 01:33:29;;;;;;;2.15;0.32;;;;;;;9.05;74.82;102146.09;5074393;27;99577;-31
2023/05/16 01:36:31;;;;;;;1.55;0.40;;;;;;;9.06;74.88;102145.19;5078786;27;96491;-30
2023/05/16 01:39:33;;;;;;;1.55;0.40;;;;;;;9.03;75.04;102147.97;5079425;27;96680;-31
2023/05/16 01:42:11;;;;;;;;;;;;;;;8.99;75.29;102154.44;5079064;27;97564;-30
2023/05/16 01:44:44;;;;;;;0.13;0.05;;;;;;;8.93;75.58;102155.50;5078548;27;98226;-31
2023/05/16 01:47:15;;;;;;;2.10;0.55;;;;;;;8.93;75.58;102150.97;5059826;27;96606;-31
2023/05/16 01:50:02;;;;;;;0.60;0.32;;;;;;;8.96;75.73;102154.53;5060297;27;96807;-31
2023/05/16 01:52:37;;;;;;;0.88;0.38;;;;;;;8.93;75.66;102150.09;5078502;27;97545;-31
2023/05/16 01:55:03;;;;;;;7.32;0.57;;;;;;;8.91;75.62;102149.28;5059801;27;100849;-32
2023/05/16 01:57:29;;;;;;;0.88;0.50;;;;;;;8.88;75.61;102152.97;5060206;27;96591;-31
2023/05/16 01:59:57;;;;;;;1.42;0.35;;;;;;;8.90;75.72;102158.31;5060240;27;96768;-30
2023/05/16 02:02:23;;;;;;;1.35;0.45;;;;;;;8.89;75.56;102151.13;5059672;27;101104;-30
2023/05/16 02:04:49;;;;;;;4.18;0.30;;;;;;;8.84;75.91;102156.72;5079054;27;97199;-30
2023/05/16 02:07:15;;;;;;;1.48;0.25;;;;;;;8.81;75.69;102150.53;5059511;27;96579;-31
2023/05/16 02:09:40;;;;;;;0.60;0.22;;;;;;;8.83;75.79;102159.47;5078057;27;96777;-31
2023/05/16 02:12:06;;;;;;;2.55;0.50;;;;;;;8.82;75.83;102155.88;5077810;27;97212;-32
2023/05/16 02:14:31;;;;;;;0.82;0.32;;;;;;;8.83;75.95;102154.06;5077845;27;100084;-31
2023/05/16 02:16:57;;;;;;;0.63;0.17;;;;;;;8.79;75.80;102153.25;5078210;27;96712;-32
2023/05/16 02:19:22;;;;;;;0.25;0.17;;;;;;;8.77;75.93;102156.94;5078087;27;96778;-31
2023/05/16 02:21:48;;;;;;;1.08;0.30;;;;;;;8.79;75.96;102164.06;5077690;27;99038;-31
2023/05/16 02:24:14;;;;;;;0.75;0.20;;;;;;;8.77;75.85;102155.16;5077647;27;98853;-30
2023/05/16 02:26:40;;;;;;;2.92;0.22;;;;;;;8.79;75.94;102163.19;5078116;27;96608;-30
2023/05/16 02:29:05;;;;;;;1.65;0.38;;;;;;;8.81;75.79;102172.13;5078376;27;96831;-31
2023/05/16 02:31:32;;;;;;;0.00;0.00;;;;;;;8.81;75.85;102166.72;5077677;27;97921;-31
2023/05/16 02:33:58;;;;;;;4.07;0.55;;;;;;;8.76;75.84;102172.28;5055849;27;100876;-31
2023/05/16 02:36:24;;;;;;;1.30;0.40;;;;;;;8.77;75.94;102176.78;5055651;27;96540;-33
2023/05/16 02:38:49;;;;;;;0.30;0.30;;;;;;;8.78;76.16;102175.81;5057283;27;96761;-31
2023/05/16 02:41:15;;;;;;;1.05;0.30;;;;;;;8.78;75.94;102175.81;5056879;27;99300;-30
2023/05/16 02:43:40;;;;;;;0.93;0.35;;;;;;;8.75;76.07;102178.63;5057074;27;97566;-30
2023/05/16 02:46:26;;;;;;;1.55;0.32;;;;;;;8.77;76.23;102184.88;5057356;27;96552;-32
2023/05/16 02:48:52;;;;;;;0.80;0.10;;;;;;;8.75;76.17;102184.03;5057372;27;96808;-33
2023/05/16 02:51:21;;;;;;;2.78;0.47;;;;;;;8.74;76.07;102187.66;5055639;27;100368;-31
2023/05/16 02:53:47;;;;;;;1.73;0.57;;;;;;;8.75;76.22;102192.13;5057274;27;99780;-31
2023/05/16 02:56:12;;;;;;;0.30;0.30;;;;;;;8.72;76.19;102181.41;5057247;27;96504;-32
2023/05/16 02:58:37;;;;;;;0.55;0.20;;;;;;;8.71;76.52;102193.16;5057229;27;96755;-31
2023/05/16 03:01:03;;;;;;;0.45;0.17;;;;;;;8.69;76.79;102195.03;5056534;27;97792;-31
2023/05/16 03:03:29;;;;;;;1.25;0.55;;;;;;;8.67;76.49;102186.09;5056885;27;97846;-35
2023/05/16 03:05:54;;;;;;;0.85;0.30;;;;;;;8.67;76.76;102183.38;5056601;27;96576;-31
2023/05/16 03:08:19;;;;;;;0.20;0.10;;;;;;;8.68;76.50;102190.56;5057359;27;96807;-32
2023/05/16 03:10:45;;;;;;;0.00;0.00;;;;;;;8.68;76.74;102190.56;5056663;27;99265;-31
2023/05/16 03:13:10;;;;;;;2.78;0.47;;;;;;;8.73;76.68;102195.84;5057010;27;97799;-30
2023/05/16 03:15:37;;;;;;;5.10;0.40;;;;;;;8.71;76.58;102199.44;5057088;27;96587;-30
2023/05/16 03:18:02;;;;;;;1.60;0.40;;;;;;;8.74;76.67;102194.88;5057415;27;96769;-31
2023/05/16 03:20:28;;;;;;;4.45;0.38;;;;;;;8.76;76.63;102204.69;5056389;27;97850;-32
2023/05/16 03:22:53;;;;;;;2.47;0.40;;;;;;;8.77;76.65;102205.56;5056584;27;97245;-30
2023/05/16 03:25:18;;;;;;;1.25;0.40;;;;;;;8.76;76.61;102210.09;5056372;27;96573;-31
2023/05/16 03:27:44;;;;;;;1.13;0.38;;;;;;;8.74;76.20;102203.88;5056882;27;96778;-33
2023/05/16 03:30:10;;;;;;;1.33;0.30;;;;;;;8.75;76.45;102204.75;5056871;27;97360;-31
2023/05/16 03:32:37;;;;;;;1.30;0.20;;;;;;;8.73;76.51;102209.34;5054210;27;100713;-31
2023/05/16 03:35:03;;;;;;;0.63;0.30;;;;;;;8.69;76.49;102206.72;5054927;27;96661;-33
2023/05/16 03:37:28;;;;;;;0.10;0.10;;;;;;;8.67;76.59;102202.28;5056611;27;96812;-32
2023/05/16 03:39:54;;;;;;;0.05;0.05;;;;;;;8.64;76.58;102208.69;5056043;27;99360;-30
2023/05/16 03:42:19;;;;;;;5.13;0.80;;;;;;;8.64;76.70;102207.81;5056551;27;98007;-31
2023/05/16 03:44:45;;;;;;;1.13;0.20;;;;;;;8.63;76.58;102215.03;5056285;27;96588;-30
2023/05/16 03:47:10;;;;;;;2.30;0.55;;;;;;;8.62;76.60;102205.13;5056355;27;96900;-30
2023/05/16 03:49:36;;;;;;;2.03;0.52;;;;;;;8.62;76.72;102201.56;5053984;27;98126;-31
2023/05/16 03:52:03;;;;;;;1.27;0.20;;;;;;;8.63;76.57;102206.94;5055973;27;98806;-31
2023/05/16 03:54:28;;;;;;;0.17;0.17;;;;;;;8.63;76.60;102203.34;5055375;27;96692;-31
2023/05/16 03:56:53;;;;;;;0.75;0.22;;;;;;;8.58;76.72;102207.97;5056506;27;96555;-31
2023/05/16 03:59:19;;;;;;;2.08;0.60;;;;;;;8.59;76.91;102217.88;5056036;27;97321;-31
2023/05/16 04:01:44;;;;;;;0.45;0.15;;;;;;;8.56;76.95;102209.88;5055988;27;97742;-31
2023/05/16 04:04:09;;;;;;;0.55;0.28;;;;;;;8.57;76.78;102220.59;5056221;27;96631;-31
2023/05/16 04:06:35;;;;;;;0.50;0.30;;;;;;;8.55;77.25;102216.19;5055006;27;96785;-30
2023/05/16 04:09:00;;;;;;;0.10;0.10;;;;;;;8.59;77.17;102220.56;5055763;27;98261;-30
2023/05/16 04:11:26;;;;;;;1.33;0.40;;;;;;;8.57;77.24;102219.72;5056022;27;97810;-31
2023/05/16 04:13:52;;;;;;;2.47;0.77;;;;;;;8.57;76.97;102223.31;5055500;27;96700;-30
2023/05/16 04:16:18;;;;;;;0.38;0.13;;;;;;;8.58;77.09;102225.09;5055811;27;97269;-30
2023/05/16 04:18:43;;;;;;;1.08;0.45;;;;;;;8.56;77.10;102221.56;5055729;27;97430;-31
2023/05/16 04:21:10;;;;;;;2.80;0.60;;;;;;;8.60;76.85;102231.31;5055663;27;97946;-31
2023/05/16 04:23:35;;;;;;;0.52;0.40;;;;;;;8.62;76.93;102228.56;5055986;27;96767;-30
2023/05/16 04:26:03;;;;;;;0.73;0.55;;;;;;;8.61;77.12;102224.09;5055672;27;96806;-31
2023/05/16 04:28:29;;;;;;;2.22;0.43;;;;;;;8.59;77.08;102226.84;5055541;27;98059;-31
2023/05/16 04:30:54;;;;;;;1.02;0.32;;;;;;;8.63;76.96;102230.34;5054203;27;101109;-31
2023/05/16 04:33:19;;;;;;;1.75;0.25;;;;;;;8.61;76.81;102234.91;5070180;27;96616;-31
2023/05/16 04:35:45;;;;;;;2.35;0.40;;;;;;;8.64;76.88;102237.50;5076364;27;96742;-31
2023/05/16 04:38:10;;;;;;;1.17;0.50;;;;;;;8.66;76.61;102239.22;5075397;27;98098;-31
2023/05/16 04:40:36;;;;;;;0.73;0.38;;;;;;;8.68;76.71;102236.50;5075722;27;99165;-32
2023/05/16 04:43:01;;;;;;;0.32;0.20;;;;;;;8.65;76.42;102231.16;5076084;27;96523;-31
2023/05/16 04:45:27;;;;;;;1.50;0.60;;;;;;;8.68;76.37;102231.97;5076185;27;96870;-31
2023/05/16 04:47:52;;;;;;;0.47;0.35;;;;;;;8.71;76.63;102236.38;5075526;27;98563;-31
2023/05/16 04:50:17;;;;;;;3.90;0.65;;;;;;;8.75;76.65;102243.47;5075767;27;97717;-30
2023/05/16 04:52:43;;;;;;;0.73;0.35;;;;;;;8.72;76.32;102238.13;5076100;27;96513;-30
2023/05/16 04:55:09;;;;;;;1.45;0.20;;;;;;;8.77;76.49;102243.41;5076513;27;97154;-31
2023/05/16 04:57:34;;;;;;;4.30;0.43;;;;;;;8.79;76.42;102249.66;5056948;27;102133;-32
2023/05/16 05:00:00;;;;;;;0.85;0.32;;;;;;;8.80;76.65;102241.50;5075279;27;98881;-31
2023/05/16 05:02:26;;;;;;;0.30;0.25;;;;;;;8.83;76.35;102252.19;5075027;27;96725;-30
2023/05/16 05:04:51;;;;;;;0.68;0.50;;;;;;;8.83;76.40;102256.72;5057214;27;96817;-31
2023/05/16 05:07:16;;;;;;;0.43;0.22;;;;;;;8.83;76.42;102252.19;5074138;27;97895;-30
2023/05/16 05:09:42;;;;;;;2.90;0.75;;;;;;;8.87;76.47;102259.28;5075396;27;97835;-31
2023/05/16 05:12:08;;;;;;;0.55;0.45;;;;;;;8.88;76.43;102261.03;5075460;27;96673;-31
2023/05/16 05:14:34;;;;;;;2.15;0.20;;;;;;;8.91;76.10;102263.66;5057215;27;96835;-31
2023/05/16 05:16:59;;;;;;;1.30;0.28;;;;;;;8.94;76.07;102259.97;5075224;27;97936;-31
2023/05/16 05:19:25;;;;;;;2.03;0.68;;;;;;;8.93;75.68;102260.91;5075804;27;97801;-30
2023/05/16 05:21:50;;;;;;;1.35;0.32;;;;;;;9.00;75.88;102262.47;5075395;27;96523;-30
2023/05/16 05:24:15;;;;;;;2.28;0.35;;;;;;;9.08;75.73;102268.53;5075697;27;96799;-31
2023/05/16 05:26:41;;;;;;;1.08;0.22;;;;;;;9.14;75.39;102271.00;5074798;27;99542;-30
2023/05/16 05:29:06;;;;;;;2.17;0.28;;;;;;;9.22;75.21;102270.75;5074881;27;99342;-32
2023/05/16 05:31:34;;;;;;;0.77;0.30;;;;;;;9.30;75.02;102273.22;5074867;27;96858;-32
2023/05/16 05:34:00;;;;;;;0.13;0.13;;;;;;;9.37;74.86;102272.09;5033227;28;96848;-31
2023/05/16 05:36:25;;;;;;;3.83;0.30;;;;;;;9.41;74.76;102271.03;5034205;28;99216;-33
2023/05/16 05:38:50;;;;;;;0.20;0.13;;;;;;;9.52;74.66;102274.25;5034243;27;99194;-30
2023/05/16 05:41:16;;;;;;;1.15;0.45;;;;;;;9.56;74.46;102267.81;5034508;28;96465;-31
2023/05/16 05:43:41;;;;;;;0.57;0.40;;;;;;;9.65;74.20;102282.81;5034724;28;96873;-31
2023/05/16 05:46:07;;;;;;;0.77;0.32;;;;;;;9.71;73.74;102277.22;5034053;28;97859;-31
2023/05/16 05:48:33;;;;;;;0.32;0.20;;;;;;;9.77;73.69;102274.31;5034263;28;98312;-31
2023/05/16 05:50:59;;;;;;;0.63;0.25;;;;;;;9.83;73.48;102272.31;5033935;27;96548;-31
2023/05/16 05:53:24;;;;;;;2.10;0.22;;;;;;;9.89;73.30;102281.09;5034419;28;96777;-30
2023/05/16 05:55:50;;;;;;;0.00;0.00;;;;;;;9.98;72.99;102279.88;5034187;27;98041;-31
2023/05/16 05:58:17;;;;;;;0.65;0.20;;;;;;;10.08;72.96;102275.91;5032676;28;100749;-30
2023/05/16 06:00:42;;;;;;;0.25;0.17;;;;;;;10.15;72.61;102273.84;5034042;28;96619;-32
2023/05/16 06:03:07;;;;;;;0.22;0.10;;;;;;;10.24;72.24;102283.47;5034353;28;97091;-31
2023/05/16 06:05:33;;;;;;;1.25;0.30;;;;;;;10.30;71.87;102280.56;5033953;27;97942;-31
2023/05/16 06:07:58;;;;;;;1.65;0.13;;;;;;;10.28;71.51;102279.72;5034270;28;97250;-31
2023/05/16 06:10:23;;;;;;;0.30;0.08;;;;;;;10.14;71.69;102272.97;5034386;28;96600;-31
2023/05/16 06:12:49;;;;;;;0.63;0.30;;;;;;;10.10;71.99;102292.97;5032812;27;96829;-32
2023/05/16 06:15:14;;;;;;;0.65;0.30;;;;;;;10.06;72.26;102279.59;5033332;27;98039;-33
2023/05/16 06:17:40;;;;;;;3.80;0.43;;;;;;;10.03;72.38;102291.41;5034472;27;97752;-32
2023/05/16 06:20:07;;;;;;;0.77;0.25;;;;;;;9.98;72.35;102293.41;5036070;28;96649;-30
2023/05/16 06:22:32;;;;;;;1.98;0.35;;;;;;;9.95;72.85;102293.53;5035990;28;96835;-32
2023/05/16 06:24:57;;;;;;;2.60;0.38;;;;;;;9.92;72.82;102297.22;5037017;27;99406;-31
2023/05/16 06:27:23;;;;;;;2.83;0.63;;;;;;;9.90;72.91;102292.81;5037118;27;98305;-32
2023/05/16 06:29:48;;;;;;;1.50;0.60;;;;;;;10.11;72.72;102304.69;5037127;28;96745;-30
2023/05/16 06:32:13;;;;;;;0.88;0.38;;;;;;;10.30;72.12;102289.56;5048826;27;99318;-32
2023/05/16 06:34:39;;;;;;;0.13;0.10;;;;;;;10.57;71.68;102303.00;5077644;27;99261;-31
2023/05/16 06:37:04;;;;;;;1.25;0.20;;;;;;;10.74;71.06;102296.94;5089694;27;99712;-31
2023/05/16 06:39:30;;;;;;;1.10;0.43;;;;;;;10.96;70.01;102300.56;5098327;27;96433;-31
2023/05/16 06:41:55;;;;;;;0.47;0.20;;;;;;;11.17;70.35;102304.25;5098621;27;96736;-32
2023/05/16 06:44:22;;;;;;;0.98;0.28;;;;;;;11.34;69.57;102300.84;5098115;27;97503;-30
2023/05/16 06:46:48;;;;;;;6.05;0.57;;;;;;;11.37;69.06;102298.00;5079647;27;101068;-31
2023/05/16 06:49:13;;;;;;;1.70;0.25;;;;;;;11.35;68.06;102297.19;5098873;27;96511;-33
2023/05/16 06:51:39;;;;;;;1.95;0.52;;;;;;;11.47;68.42;102304.81;5098556;27;96857;-31
2023/05/16 06:54:04;;;;;;;1.63;0.22;;;;;;;11.58;65.63;102308.91;5079765;27;99956;-30
2023/05/16 06:56:30;;;;;;;0.10;0.00;;;;;;;11.71;66.86;102310.16;5098392;27;98228;-31
2023/05/16 06:58:55;;;;;;;2.35;0.40;;;;;;;11.87;65.64;102316.72;5098049;27;96656;-33
2023/05/16 07:01:21;;;;;;;2.83;0.40;;;;;;;11.96;65.44;102312.69;5098052;27;96829;-30
2023/05/16 07:03:46;;;;;;;0.35;0.20;;;;;;;11.79;66.43;102309.81;5097612;27;98059;-30
2023/05/16 07:06:11;;;;;;;0.00;0.00;;;;;;;11.86;66.06;102320.34;5097727;27;97759;-33
2023/05/16 07:08:37;;;;;;;0.90;0.30;;;;;;;12.00;66.81;102327.03;5098375;27;96521;-31
2023/05/16 07:11:02;;;;;;;1.67;0.38;;;;;;;11.85;66.49;102318.59;5098028;27;96827;-32
2023/05/16 07:13:28;;;;;;;3.47;0.25;;;;;;;11.74;65.17;102325.41;5097964;27;98002;-31
2023/05/16 07:15:53;;;;;;;3.25;0.13;;;;;;;11.62;65.27;102318.69;5097995;27;97883;-31
2023/05/16 07:18:18;;;;;;;2.08;0.32;;;;;;;11.55;65.31;102320.75;5098159;27;96521;-31
2023/05/16 07:20:44;;;;;;;2.67;0.40;;;;;;;11.54;66.12;102326.28;5098585;27;96734;-31
2023/05/16 07:23:10;;;;;;;2.60;0.28;;;;;;;11.76;64.90;102323.53;5078931;27;100943;-31
2023/05/16 07:25:36;;;;;;;0.05;0.05;;;;;;;11.77;65.13;102328.00;5097436;27;99568;-30
2023/05/16 07:28:02;;;;;;;0.93;0.30;;;;;;;11.68;65.84;102318.44;5078851;27;96733;-31
2023/05/16 07:30:27;;;;;;;0.60;0.35;;;;;;;11.65;65.73;102332.13;5077926;27;96757;-31
2023/05/16 07:32:53;;;;;;;1.50;0.30;;;;;;;11.60;66.43;102326.88;5096341;27;99200;-31
2023/05/16 07:35:18;;;;;;;0.25;0.10;;;;;;;11.65;66.20;102332.13;5097487;27;97685;-31
2023/05/16 07:37:43;;;;;;;0.90;0.30;;;;;;;11.71;65.66;102345.44;5097477;27;96632;-31
2023/05/16 07:40:10;;;;;;;0.65;0.30;;;;;;;11.88;64.86;102333.88;5079010;27;96884;-31
2023/05/16 07:42:35;;;;;;;0.08;0.08;;;;;;;11.80;64.01;102338.75;5077911;27;99376;-30
2023/05/16 07:45:01;;;;;;;0.30;0.17;;;;;;;11.92;65.08;102340.97;5097389;27;96676;-32
2023/05/16 07:47:26;;;;;;;1.80;0.55;;;;;;;12.08;64.23;102331.19;5097638;27;96764;-31
2023/05/16 07:49:52;;;;;;;1.60;0.68;;;;;;;12.29;64.98;102328.47;5097419;27;96850;-31
2023/05/16 07:52:17;;;;;;;1.75;0.25;;;;;;;12.62;64.54;102333.31;5096686;27;97968;-31
2023/05/16 07:54:46;;;;;;;1.35;0.35;;;;;;;12.84;63.71;102334.06;5097132;27;97762;-31
2023/05/16 07:57:13;;;;;;;0.50;0.30;;;;;;;13.14;62.47;102331.72;5078734;27;96633;-30
2023/05/16 07:59:39;;;;;;;2.22;0.50;;;;;;;13.17;61.41;102334.28;5078783;27;96885;-30
2023/05/16 08:02:04;;;;;;;4.95;0.38;;;;;;;13.20;61.24;102329.66;5096819;27;99442;-31
2023/05/16 08:04:30;;;;;;;1.15;0.10;;;;;;;13.32;60.00;102327.28;5097171;27;97155;-30
2023/05/16 08:06:55;;;;;;;0.30;0.13;;;;;;;13.39;60.01;102327.81;5097244;27;96540;-31
2023/05/16 08:09:20;;;;;;;0.32;0.10;;;;;;;13.14;60.37;102334.44;5097654;27;96843;-31
2023/05/16 08:11:45;;;;;;;0.98;0.25;;;;;;;12.90;61.24;102339.22;5096971;27;96959;-33
2023/05/16 08:14:11;;;;;;;3.25;0.38;;;;;;;13.11;61.40;102331.00;5096867;27;97782;-31
2023/05/16 08:16:36;;;;;;;1.13;0.30;;;;;;;13.46;60.61;102347.47;5096376;27;96683;-31
2023/05/16 08:19:01;;;;;;;2.83;0.10;;;;;;;13.48;59.08;102340.97;5097245;27;96831;-31
2023/05/16 08:21:27;;;;;;;1.27;0.25;;;;;;;13.28;59.91;102339.25;5096657;27;97469;-32
2023/05/16 08:23:53;;;;;;;1.70;0.17;;;;;;;13.32;58.61;102342.69;5096920;27;97758;-32
2023/05/16 08:26:18;;;;;;;0.95;0.20;;;;;;;13.40;57.53;102340.50;5078376;27;96695;-31
2023/05/16 08:28:43;;;;;;;1.27;0.10;;;;;;;13.35;59.23;102358.88;5096841;27;96811;-31
2023/05/16 08:31:09;;;;;;;1.83;0.40;;;;;;;13.09;60.01;102343.78;5096552;27;97434;-31
2023/05/16 08:33:35;;;;;;;0.00;0.00;;;;;;;13.10;58.84;102346.41;5077744;27;101138;-32
2023/05/16 08:36:00;;;;;;;1.25;0.30;;;;;;;13.55;59.82;102349.72;5096870;27;96591;-32
2023/05/16 08:38:26;;;;;;;0.82;0.15;;;;;;;13.85;58.44;102350.03;5096726;27;96865;-31
2023/05/16 08:40:51;;;;;;;0.10;0.10;;;;;;;14.09;58.93;102353.31;5095652;27;98122;-31
2023/05/16 08:43:16;;;;;;;1.83;0.43;;;;;;;14.13;55.98;102348.56;5096113;27;97768;-31
2023/05/16 08:45:42;;;;;;;0.55;0.22;;;;;;;14.21;57.97;102351.78;5096556;27;96454;-31
2023/05/16 08:48:10;;;;;;;1.25;0.43;;;;;;;14.27;57.91;102353.31;5077916;27;96906;-31
2023/05/16 08:50:36;;;;;;;0.65;0.22;;;;;;;14.55;55.71;102347.28;5096078;27;97996;-30
2023/05/16 08:53:07;;;;;;;1.50;0.45;;;;;;;14.50;56.62;102335.72;5077426;27;100712;-31
2023/05/16 08:55:34;;;;;;;2.42;0.10;;;;;;;14.40;56.28;102360.75;5096481;27;96623;-31
2023/05/16 08:58:00;;;;;;;1.85;0.43;;;;;;;14.15;57.58;102352.97;5078134;27;96941;-31
2023/05/16 09:00:26;;;;;;;0.52;0.17;;;;;;;13.91;57.91;102357.00;5077534;27;101008;-30
2023/05/16 09:02:52;;;;;;;0.88;0.45;;;;;;;13.58;58.09;102350.44;5077354;27;101012;-31
2023/05/16 09:05:17;;;;;;;2.38;0.20;;;;;;;13.62;56.56;102351.19;5095714;27;96591;-31
2023/05/16 09:07:44;;;;;;;1.55;0.10;;;;;;;13.63;58.73;102350.22;5096249;27;96759;-32
2023/05/16 09:10:10;;;;;;;1.48;0.15;;;;;;;14.05;58.07;102348.09;5096095;27;98057;-31
2023/05/16 09:12:38;;;;;;;2.38;0.30;;;;;;;14.08;58.01;102354.25;5095712;27;99167;-31
2023/05/16 09:15:05;;;;;;;1.85;0.40;;;;;;;13.82;58.02;102352.88;5096434;27;96581;-30
2023/05/16 09:17:38;;;;;;;1.33;0.25;;;;;;;13.62;56.62;102363.91;5077432;27;96893;-31
2023/05/16 09:20:18;;;;;;;0.73;0.25;;;;;;;13.82;56.16;102358.34;5077324;27;100844;-32
2023/05/16 09:22:51;;;;;;;0.03;0.03;;;;;;;13.96;57.14;102363.06;5095900;27;97246;-32
2023/05/16 09:25:18;;;;;;;0.73;0.30;;;;;;;13.96;57.24;102366.69;5077389;27;96561;-31
2023/05/16 09:27:46;;;;;;;0.15;0.05;;;;;;;13.96;54.30;102363.94;5077427;27;96901;-31
2023/05/16 09:30:13;;;;;;;0.17;0.13;;;;;;;14.16;55.30;102367.50;5094963;27;99283;-31
2023/05/16 09:32:42;;;;;;;1.33;0.50;;;;;;;14.39;55.43;102374.44;5076731;27;100752;-31
2023/05/16 09:35:13;;;;;;;0.50;0.20;;;;;;;14.22;56.26;102351.69;5077326;27;96587;-30
2023/05/16 09:37:43;;;;;;;0.43;0.13;;;;;;;14.19;55.53;102367.34;5077374;27;96829;-30
2023/05/16 09:40:09;;;;;;;0.80;0.20;;;;;;;14.33;54.06;102378.41;5077073;27;98976;-32
2023/05/16 09:42:34;;;;;;;0.28;0.08;;;;;;;14.71;54.67;102370.03;5095640;27;97830;-32
2023/05/16 09:45:00;;;;;;;0.82;0.45;;;;;;;14.97;54.20;102365.88;5096097;27;96673;-30
2023/05/16 09:47:27;;;;;;;0.65;0.20;;;;;;;14.64;54.84;102365.88;5096219;27;96778;-30
2023/05/16 09:49:53;;;;;;;0.52;0.10;;;;;;;14.55;55.15;102369.97;5076510;27;101163;-31
2023/05/16 09:52:18;;;;;;;2.55;0.35;;;;;;;14.49;55.30;102375.75;5096204;27;97686;-31
2023/05/16 09:54:47;;;;;;;1.55;0.30;;;;;;;14.74;55.74;102378.03;5080155;27;96642;-32
2023/05/16 09:57:20;;;;;;;0.90;0.47;;;;;;;15.11;53.25;102373.28;5080557;27;96854;-32
2023/05/16 09:59:46;;;;;;;1.10;0.20;;;;;;;15.48;54.59;102371.19;5098761;27;99655;-31
2023/05/16 10:02:13;;;;;;;4.10;0.35;;;;;;;15.81;53.23;102371.09;5080245;27;101253;-31
2023/05/16 10:04:38;;;;;;;4.28;0.30;;;;;;;15.97;52.16;102356.50;5080288;27;96754;-31
2023/05/16 10:07:05;;;;;;;0.50;0.15;;;;;;;16.24;50.98;102362.16;5080462;27;96937;-31
2023/05/16 10:09:32;;;;;;;2.17;0.10;;;;;;;16.40;50.84;102375.75;5080242;27;99265;-30
2023/05/16 10:12:01;;;;;;;1.50;0.40;;;;;;;16.42;49.17;102373.81;5099353;27;97826;-30
2023/05/16 10:14:27;;;;;;;2.15;0.40;;;;;;;16.53;51.18;102357.63;5080514;27;96582;-32
2023/05/16 10:16:53;;;;;;;1.05;0.28;;;;;;;16.50;49.69;102372.38;5080677;27;96815;-31
2023/05/16 10:19:20;;;;;;;1.52;0.40;;;;;;;16.38;48.12;102370.41;5079579;27;101249;-30
2023/05/16 10:21:51;;;;;;;0.22;0.20;;;;;;;16.42;48.21;102369.25;5098562;27;98757;-31
2023/05/16 10:24:22;;;;;;;0.98;0.25;;;;;;;16.57;50.60;102361.91;5098779;27;96560;-30
2023/05/16 10:26:50;;;;;;;0.37;0.10;;;;;;;16.55;50.11;102370.22;5080361;27;96736;-31
2023/05/16 10:29:16;;;;;;;0.65;0.35;;;;;;;16.53;49.10;102369.44;5079801;27;100785;-30
2023/05/16 10:31:42;;;;;;;3.30;0.40;;;;;;;16.06;49.49;102372.34;5097743;27;98661;-31
2023/05/16 10:34:09;;;;;;;1.25;0.50;;;;;;;15.70;50.54;102376.28;5079860;27;96661;-30
2023/05/16 10:36:35;;;;;;;1.40;0.17;;;;;;;15.99;52.02;102365.50;5080569;27;96915;-30
2023/05/16 10:39:02;;;;;;;0.15;0.13;;;;;;;16.25;50.70;102362.03;5079660;27;101132;-32
2023/05/16 10:41:28;;;;;;;1.00;0.50;;;;;;;16.43;47.90;102365.50;5079598;27;101389;-31
2023/05/16 10:43:58;;;;;;;3.20;0.25;;;;;;;16.62;48.14;102353.44;5079340;27;96723;-31
2023/05/16 10:46:25;;;;;;;0.47;0.32;;;;;;;16.55;49.72;102353.81;5079808;27;96871;-31
2023/05/16 10:48:51;;;;;;;0.45;0.20;;;;;;;16.30;49.54;102359.94;5079574;27;101003;-31
2023/05/16 10:51:22;;;;;;;1.35;0.43;;;;;;;16.31;48.11;102361.69;5089342;27;97760;-32
2023/05/16 10:53:50;;;;;;;1.50;0.43;;;;;;;16.44;50.15;102361.78;5077671;27;96788;-31
2023/05/16 10:56:22;;;;;;;0.47;0.17;;;;;;;16.72;49.04;102360.06;5059173;27;96918;-32
2023/05/16 10:58:47;;;;;;;1.38;0.25;;;;;;;16.80;48.93;102357.75;5058674;27;101615;-30
2023/05/16 11:01:34;;;;;;;1.63;0.30;;;;;;;16.70;48.20;102351.06;5077640;27;98688;-32
2023/05/16 11:04:09;;;;;;;1.40;0.40;;;;;;;16.79;49.18;102350.53;5077937;27;96444;-31
2023/05/16 11:06:40;;;;;;;0.63;0.20;;;;;;;16.93;46.17;102356.00;5058914;27;96615;-31
2023/05/16 11:09:14;;;;;;;0.10;0.10;;;;;;;17.10;47.55;102354.91;5076359;27;99470;-30
2023/05/16 11:11:51;;;;;;;0.73;0.17;;;;;;;17.29;47.93;102357.31;5077190;27;97785;-31
2023/05/16 11:14:42;;;;;;;0.15;0.10;;;;;;;17.23;46.79;102359.56;5077959;27;96578;-30
2023/05/16 11:17:14;;;;;;;0.10;0.10;;;;;;;17.37;47.10;102354.06;5077765;27;96529;-31
2023/05/16 11:19:46;;;;;;;1.25;0.40;;;;;;;17.48;46.33;102346.03;5058552;27;101159;-31
2023/05/16 11:22:23;;;;;;;0.40;0.20;;;;;;;17.70;47.36;102348.19;5058602;27;101128;-31
2023/05/16 11:24:54;;;;;;;2.95;0.40;;;;;;;17.59;47.27;102353.50;5058829;27;96731;-31
2023/05/16 11:27:30;;;;;;;1.02;0.32;;;;;;;17.23;48.20;102365.03;5059160;27;96821;-30
2023/05/16 11:30:10;;;;;;;2.03;0.30;;;;;;;17.22;48.90;102346.88;5058318;27;101315;-31